sensor_id;sensor_type;location;lat;lon;timestamp;temperature;humidity
6666;DHT22;3369;49.906;8.598;2023-03-23T00:01:06;13.90;94.00
6666;DHT22;3369;49.906;8.598;2023-03-23T00:03:32;13.90;94.10
6666;DHT22;3369;49.906;8.598;2023-03-23T00:06:01;13.80;94.10
6666;DHT22;3369;49.906;8.598;2023-03-23T00:08:30;13.90;94.20
6666;DHT22;3369;49.906;8.598;2023-03-23T00:10:56;13.80;94.20
6666;DHT22;3369;49.906;8.598;2023-03-23T00:13:25;13.80;94.30
6666;DHT22;3369;49.906;8.598;2023-03-23T00:15:51;13.80;94.40
6666;DHT22;3369;49.906;8.598;2023-03-23T00:18:21;13.80;94.50
6666;DHT22;3369;49.906;8.598;2023-03-23T00:20:55;13.80;94.60
6666;DHT22;3369;49.906;8.598;2023-03-23T00:23:23;13.80;94.70
6666;DHT22;3369;49.906;8.598;2023-03-23T00:25:56;13.80;94.90
6666;DHT22;3369;49.906;8.598;2023-03-23T00:28:26;13.70;95.00
6666;DHT22;3369;49.906;8.598;2023-03-23T00:33:23;13.70;95.50
6666;DHT22;3369;49.906;8.598;2023-03-23T00:35:50;13.70;95.70
6666;DHT22;3369;49.906;8.598;2023-03-23T00:38:19;13.70;96.00
6666;DHT22;3369;49.906;8.598;2023-03-23T00:40:45;13.60;96.30
6666;DHT22;3369;49.906;8.598;2023-03-23T00:43:14;13.60;96.40
6666;DHT22;3369;49.906;8.598;2023-03-23T00:45:40;13.60;96.50
6666;DHT22;3369;49.906;8.598;2023-03-23T00:48:06;13.60;96.70
6666;DHT22;3369;49.906;8.598;2023-03-23T00:50:34;13.60;96.90
6666;DHT22;3369;49.906;8.598;2023-03-23T00:53:00;13.60;97.00
6666;DHT22;3369;49.906;8.598;2023-03-23T00:55:25;13.60;97.10
6666;DHT22;3369;49.906;8.598;2023-03-23T00:57:51;13.60;97.20
6666;DHT22;3369;49.906;8.598;2023-03-23T01:00:20;13.60;97.20
6666;DHT22;3369;49.906;8.598;2023-03-23T01:02:46;13.60;97.20
6666;DHT22;3369;49.906;8.598;2023-03-23T01:05:14;13.60;97.20
6666;DHT22;3369;49.906;8.598;2023-03-23T01:07:41;13.60;97.20
6666;DHT22;3369;49.906;8.598;2023-03-23T01:29:41;13.50;97.40
6666;DHT22;3369;49.906;8.598;2023-03-23T01:32:07;13.50;97.70
6666;DHT22;3369;49.906;8.598;2023-03-23T01:34:32;13.50;97.80
6666;DHT22;3369;49.906;8.598;2023-03-23T01:36:58;13.50;97.80
6666;DHT22;3369;49.906;8.598;2023-03-23T01:39:24;13.50;98.00
6666;DHT22;3369;49.906;8.598;2023-03-23T01:41:50;13.50;98.10
6666;DHT22;3369;49.906;8.598;2023-03-23T01:46:41;13.40;98.20
6666;DHT22;3369;49.906;8.598;2023-03-23T01:49:13;13.40;98.30
6666;DHT22;3369;49.906;8.598;2023-03-23T01:51:51;13.40;98.40
6666;DHT22;3369;49.906;8.598;2023-03-23T01:54:20;13.30;98.30
6666;DHT22;3369;49.906;8.598;2023-03-23T01:56:55;13.30;98.40
6666;DHT22;3369;49.906;8.598;2023-03-23T01:59:23;13.30;98.50
6666;DHT22;3369;49.906;8.598;2023-03-23T02:01:49;13.30;98.90
6666;DHT22;3369;49.906;8.598;2023-03-23T02:04:17;13.30;99.30
6666;DHT22;3369;49.906;8.598;2023-03-23T02:06:44;13.30;99.80
6666;DHT22;3369;49.906;8.598;2023-03-23T02:09:11;13.20;99.80
6666;DHT22;3369;49.906;8.598;2023-03-23T02:11:39;13.20;99.90
6666;DHT22;3369;49.906;8.598;2023-03-23T02:14:05;13.10;99.90
6666;DHT22;3369;49.906;8.598;2023-03-23T02:17:01;13.10;99.90
6666;DHT22;3369;49.906;8.598;2023-03-23T02:22:43;13.00;99.90
6666;DHT22;3369;49.906;8.598;2023-03-23T02:34:12;13.00;99.90
6666;DHT22;3369;49.906;8.598;2023-03-23T02:39:43;12.90;99.90
6666;DHT22;3369;49.906;8.598;2023-03-23T02:42:13;12.90;99.90
6666;DHT22;3369;49.906;8.598;2023-03-23T02:44:43;12.90;99.90
6666;DHT22;3369;49.906;8.598;2023-03-23T02:47:18;12.90;99.80
6666;DHT22;3369;49.906;8.598;2023-03-23T02:49:48;12.90;99.60
6666;DHT22;3369;49.906;8.598;2023-03-23T02:52:24;13.00;99.70
6666;DHT22;3369;49.906;8.598;2023-03-23T02:54:52;13.00;99.70
6666;DHT22;3369;49.906;8.598;2023-03-23T02:57:20;13.00;99.90
6666;DHT22;3369;49.906;8.598;2023-03-23T02:59:46;12.90;99.90
6666;DHT22;3369;49.906;8.598;2023-03-23T03:02:17;12.90;99.90
6666;DHT22;3369;49.906;8.598;2023-03-23T03:04:51;12.90;99.90
6666;DHT22;3369;49.906;8.598;2023-03-23T03:07:58;12.90;99.90
6666;DHT22;3369;49.906;8.598;2023-03-23T03:10:37;12.90;99.90
6666;DHT22;3369;49.906;8.598;2023-03-23T03:15:45;12.80;99.90
6666;DHT22;3369;49.906;8.598;2023-03-23T03:18:18;12.70;99.90
6666;DHT22;3369;49.906;8.598;2023-03-23T03:20:50;12.70;99.90
6666;DHT22;3369;49.906;8.598;2023-03-23T03:23:20;12.60;99.90
6666;DHT22;3369;49.906;8.598;2023-03-23T03:25:47;12.60;99.90
6666;DHT22;3369;49.906;8.598;2023-03-23T03:28:19;12.60;99.90
6666;DHT22;3369;49.906;8.598;2023-03-23T03:30:52;12.60;99.90
6666;DHT22;3369;49.906;8.598;2023-03-23T03:33:20;12.60;99.90
6666;DHT22;3369;49.906;8.598;2023-03-23T03:35:51;12.60;99.90
6666;DHT22;3369;49.906;8.598;2023-03-23T03:38:18;12.60;99.90
6666;DHT22;3369;49.906;8.598;2023-03-23T03:40:44;12.60;99.90
6666;DHT22;3369;49.906;8.598;2023-03-23T03:43:10;12.60;99.90
6666;DHT22;3369;49.906;8.598;2023-03-23T03:45:35;12.60;99.90
6666;DHT22;3369;49.906;8.598;2023-03-23T03:48:01;12.60;99.90
6666;DHT22;3369;49.906;8.598;2023-03-23T03:50:27;12.60;99.90
6666;DHT22;3369;49.906;8.598;2023-03-23T03:52:53;12.60;99.90
6666;DHT22;3369;49.906;8.598;2023-03-23T03:55:19;12.60;99.90
6666;DHT22;3369;49.906;8.598;2023-03-23T03:57:45;12.60;99.90
6666;DHT22;3369;49.906;8.598;2023-03-23T04:00:11;12.60;99.90
6666;DHT22;3369;49.906;8.598;2023-03-23T04:02:45;12.50;99.90
6666;DHT22;3369;49.906;8.598;2023-03-23T04:05:17;12.50;99.90
6666;DHT22;3369;49.906;8.598;2023-03-23T04:07:44;12.50;99.90
6666;DHT22;3369;49.906;8.598;2023-03-23T04:10:11;12.50;99.90
6666;DHT22;3369;49.906;8.598;2023-03-23T04:12:41;12.50;99.90
6666;DHT22;3369;49.906;8.598;2023-03-23T04:15:07;12.40;99.90
6666;DHT22;3369;49.906;8.598;2023-03-23T04:17:34;12.40;99.90
6666;DHT22;3369;49.906;8.598;2023-03-23T04:20:00;12.40;99.90
6666;DHT22;3369;49.906;8.598;2023-03-23T04:22:27;12.40;99.90
6666;DHT22;3369;49.906;8.598;2023-03-23T04:25:04;12.40;99.90
6666;DHT22;3369;49.906;8.598;2023-03-23T04:27:32;12.40;99.90
6666;DHT22;3369;49.906;8.598;2023-03-23T04:29:58;12.40;99.90
6666;DHT22;3369;49.906;8.598;2023-03-23T04:32:27;12.40;99.90
6666;DHT22;3369;49.906;8.598;2023-03-23T04:34:55;12.40;99.90
6666;DHT22;3369;49.906;8.598;2023-03-23T04:37:23;12.40;99.90
6666;DHT22;3369;49.906;8.598;2023-03-23T04:39:55;12.40;99.90
6666;DHT22;3369;49.906;8.598;2023-03-23T04:42:29;12.40;99.90
6666;DHT22;3369;49.906;8.598;2023-03-23T04:44:56;12.40;99.90
6666;DHT22;3369;49.906;8.598;2023-03-23T04:47:23;12.30;99.90
6666;DHT22;3369;49.906;8.598;2023-03-23T04:49:49;12.30;99.90
6666;DHT22;3369;49.906;8.598;2023-03-23T04:52:16;12.30;99.90
6666;DHT22;3369;49.906;8.598;2023-03-23T04:54:42;12.30;99.90
6666;DHT22;3369;49.906;8.598;2023-03-23T04:57:08;12.30;99.90
6666;DHT22;3369;49.906;8.598;2023-03-23T04:59:34;12.30;99.90
6666;DHT22;3369;49.906;8.598;2023-03-23T05:02:00;12.30;99.90
6666;DHT22;3369;49.906;8.598;2023-03-23T05:04:25;12.30;99.90
6666;DHT22;3369;49.906;8.598;2023-03-23T05:06:51;12.30;99.90
6666;DHT22;3369;49.906;8.598;2023-03-23T05:09:18;12.30;99.90
6666;DHT22;3369;49.906;8.598;2023-03-23T05:11:44;12.30;99.90
6666;DHT22;3369;49.906;8.598;2023-03-23T05:14:10;12.40;99.90
6666;DHT22;3369;49.906;8.598;2023-03-23T05:16:36;12.40;99.90
6666;DHT22;3369;49.906;8.598;2023-03-23T05:19:03;12.40;99.90
6666;DHT22;3369;49.906;8.598;2023-03-23T05:21:30;12.50;99.90
6666;DHT22;3369;49.906;8.598;2023-03-23T05:23:56;12.60;99.90
6666;DHT22;3369;49.906;8.598;2023-03-23T05:26:23;12.70;99.90
6666;DHT22;3369;49.906;8.598;2023-03-23T05:28:54;12.70;99.90
6666;DHT22;3369;49.906;8.598;2023-03-23T05:31:21;12.80;99.90
6666;DHT22;3369;49.906;8.598;2023-03-23T05:33:48;12.80;99.90
6666;DHT22;3369;49.906;8.598;2023-03-23T05:36:14;12.80;99.90
6666;DHT22;3369;49.906;8.598;2023-03-23T05:38:40;12.90;99.90
6666;DHT22;3369;49.906;8.598;2023-03-23T05:41:11;12.90;99.90
6666;DHT22;3369;49.906;8.598;2023-03-23T05:43:36;12.80;99.90
6666;DHT22;3369;49.906;8.598;2023-03-23T05:46:02;12.80;99.90
6666;DHT22;3369;49.906;8.598;2023-03-23T05:48:28;12.80;99.90
6666;DHT22;3369;49.906;8.598;2023-03-23T05:50:54;12.80;99.90
6666;DHT22;3369;49.906;8.598;2023-03-23T05:53:20;12.80;99.90
6666;DHT22;3369;49.906;8.598;2023-03-23T05:55:46;12.80;99.90
6666;DHT22;3369;49.906;8.598;2023-03-23T05:58:12;12.80;99.90
6666;DHT22;3369;49.906;8.598;2023-03-23T06:00:38;12.80;99.90
6666;DHT22;3369;49.906;8.598;2023-03-23T06:03:04;12.80;99.90
6666;DHT22;3369;49.906;8.598;2023-03-23T06:05:30;12.80;99.90
6666;DHT22;3369;49.906;8.598;2023-03-23T06:07:55;12.70;99.90
6666;DHT22;3369;49.906;8.598;2023-03-23T06:10:21;12.70;99.90
6666;DHT22;3369;49.906;8.598;2023-03-23T06:12:49;12.60;99.90
6666;DHT22;3369;49.906;8.598;2023-03-23T06:15:16;12.60;99.90
6666;DHT22;3369;49.906;8.598;2023-03-23T06:17:41;12.50;99.90
6666;DHT22;3369;49.906;8.598;2023-03-23T06:20:07;12.50;99.90
6666;DHT22;3369;49.906;8.598;2023-03-23T06:22:38;12.50;99.90
6666;DHT22;3369;49.906;8.598;2023-03-23T06:25:09;12.50;99.90
6666;DHT22;3369;49.906;8.598;2023-03-23T06:27:36;12.40;99.90
6666;DHT22;3369;49.906;8.598;2023-03-23T06:30:04;12.40;99.90
6666;DHT22;3369;49.906;8.598;2023-03-23T06:32:31;12.40;99.90
6666;DHT22;3369;49.906;8.598;2023-03-23T06:34:57;12.40;99.90
6666;DHT22;3369;49.906;8.598;2023-03-23T06:37:23;12.40;99.90
6666;DHT22;3369;49.906;8.598;2023-03-23T06:39:50;12.40;99.90
6666;DHT22;3369;49.906;8.598;2023-03-23T06:42:17;12.40;99.90
6666;DHT22;3369;49.906;8.598;2023-03-23T06:44:43;12.30;99.90
6666;DHT22;3369;49.906;8.598;2023-03-23T06:47:09;12.30;99.90
6666;DHT22;3369;49.906;8.598;2023-03-23T06:49:35;12.30;99.90
6666;DHT22;3369;49.906;8.598;2023-03-23T07:13:06;12.00;99.90
6666;DHT22;3369;49.906;8.598;2023-03-23T07:15:32;12.00;99.90
6666;DHT22;3369;49.906;8.598;2023-03-23T07:17:57;12.00;99.90
6666;DHT22;3369;49.906;8.598;2023-03-23T07:20:23;12.00;99.90
6666;DHT22;3369;49.906;8.598;2023-03-23T07:22:49;12.00;99.90
6666;DHT22;3369;49.906;8.598;2023-03-23T07:25:16;12.00;99.90
6666;DHT22;3369;49.906;8.598;2023-03-23T07:27:41;12.00;99.90
6666;DHT22;3369;49.906;8.598;2023-03-23T07:30:08;12.00;99.90
6666;DHT22;3369;49.906;8.598;2023-03-23T07:32:33;12.00;99.90
6666;DHT22;3369;49.906;8.598;2023-03-23T07:35:00;12.00;99.90
6666;DHT22;3369;49.906;8.598;2023-03-23T07:37:25;12.00;99.90
6666;DHT22;3369;49.906;8.598;2023-03-23T07:39:51;12.00;99.90
6666;DHT22;3369;49.906;8.598;2023-03-23T07:42:17;12.00;99.90
6666;DHT22;3369;49.906;8.598;2023-03-23T07:44:42;12.00;99.90
6666;DHT22;3369;49.906;8.598;2023-03-23T07:47:08;12.00;99.90
6666;DHT22;3369;49.906;8.598;2023-03-23T07:49:34;12.00;99.90
6666;DHT22;3369;49.906;8.598;2023-03-23T07:51:59;12.00;99.90
6666;DHT22;3369;49.906;8.598;2023-03-23T07:54:29;12.00;99.90
6666;DHT22;3369;49.906;8.598;2023-03-23T07:56:55;12.00;99.90
6666;DHT22;3369;49.906;8.598;2023-03-23T07:59:21;12.10;99.90
6666;DHT22;3369;49.906;8.598;2023-03-23T08:01:47;12.10;99.90
6666;DHT22;3369;49.906;8.598;2023-03-23T08:04:13;12.10;99.90
6666;DHT22;3369;49.906;8.598;2023-03-23T08:06:39;12.10;99.90
6666;DHT22;3369;49.906;8.598;2023-03-23T08:09:05;12.10;99.90
6666;DHT22;3369;49.906;8.598;2023-03-23T08:11:34;12.10;99.90
6666;DHT22;3369;49.906;8.598;2023-03-23T08:14:00;12.10;99.90
6666;DHT22;3369;49.906;8.598;2023-03-23T08:16:26;12.20;99.90
6666;DHT22;3369;49.906;8.598;2023-03-23T08:18:53;12.20;99.90
6666;DHT22;3369;49.906;8.598;2023-03-23T08:21:18;12.20;99.90
6666;DHT22;3369;49.906;8.598;2023-03-23T08:23:45;12.20;99.90
6666;DHT22;3369;49.906;8.598;2023-03-23T08:26:10;12.30;99.90
6666;DHT22;3369;49.906;8.598;2023-03-23T08:28:37;12.20;99.90
6666;DHT22;3369;49.906;8.598;2023-03-23T08:31:09;12.30;99.90
6666;DHT22;3369;49.906;8.598;2023-03-23T08:33:35;12.30;99.90
6666;DHT22;3369;49.906;8.598;2023-03-23T08:36:02;12.30;99.90
6666;DHT22;3369;49.906;8.598;2023-03-23T08:38:29;12.30;99.90
6666;DHT22;3369;49.906;8.598;2023-03-23T08:40:59;12.30;99.90
6666;DHT22;3369;49.906;8.598;2023-03-23T08:43:25;12.20;99.90
6666;DHT22;3369;49.906;8.598;2023-03-23T08:45:53;12.20;99.90
6666;DHT22;3369;49.906;8.598;2023-03-23T08:48:20;12.20;99.90
6666;DHT22;3369;49.906;8.598;2023-03-23T08:50:45;12.20;99.90
6666;DHT22;3369;49.906;8.598;2023-03-23T08:53:11;12.30;99.90
6666;DHT22;3369;49.906;8.598;2023-03-23T08:55:37;12.30;99.90
6666;DHT22;3369;49.906;8.598;2023-03-23T08:58:04;12.30;99.90
6666;DHT22;3369;49.906;8.598;2023-03-23T09:00:29;12.30;99.90
6666;DHT22;3369;49.906;8.598;2023-03-23T09:02:55;12.40;99.90
6666;DHT22;3369;49.906;8.598;2023-03-23T09:05:24;12.40;99.90
6666;DHT22;3369;49.906;8.598;2023-03-23T09:07:51;12.40;99.90
6666;DHT22;3369;49.906;8.598;2023-03-23T09:10:17;12.40;99.90
6666;DHT22;3369;49.906;8.598;2023-03-23T09:12:44;12.50;99.90
6666;DHT22;3369;49.906;8.598;2023-03-23T09:15:13;12.50;99.90
6666;DHT22;3369;49.906;8.598;2023-03-23T09:17:43;12.50;99.90
6666;DHT22;3369;49.906;8.598;2023-03-23T09:20:11;12.50;99.90
6666;DHT22;3369;49.906;8.598;2023-03-23T09:22:39;12.60;99.90
6666;DHT22;3369;49.906;8.598;2023-03-23T09:25:07;12.70;99.90
6666;DHT22;3369;49.906;8.598;2023-03-23T09:27:33;12.70;99.90
6666;DHT22;3369;49.906;8.598;2023-03-23T09:29:59;12.80;99.90
6666;DHT22;3369;49.906;8.598;2023-03-23T09:32:26;12.80;99.90
6666;DHT22;3369;49.906;8.598;2023-03-23T09:34:53;12.90;99.90
6666;DHT22;3369;49.906;8.598;2023-03-23T09:37:21;12.90;99.90
6666;DHT22;3369;49.906;8.598;2023-03-23T09:39:47;13.00;99.90
6666;DHT22;3369;49.906;8.598;2023-03-23T09:50:52;13.20;99.90
6666;DHT22;3369;49.906;8.598;2023-03-23T09:53:27;13.30;99.90
6666;DHT22;3369;49.906;8.598;2023-03-23T09:55:54;13.50;99.90
6666;DHT22;3369;49.906;8.598;2023-03-23T09:58:31;13.60;99.90
6666;DHT22;3369;49.906;8.598;2023-03-23T10:01:17;13.70;99.90
6666;DHT22;3369;49.906;8.598;2023-03-23T10:03:45;13.90;99.90
6666;DHT22;3369;49.906;8.598;2023-03-23T10:06:17;14.00;99.90
6666;DHT22;3369;49.906;8.598;2023-03-23T10:08:51;14.10;99.90
6666;DHT22;3369;49.906;8.598;2023-03-23T10:11:34;14.00;99.90
6666;DHT22;3369;49.906;8.598;2023-03-23T10:14:12;14.00;99.90
6666;DHT22;3369;49.906;8.598;2023-03-23T10:16:47;13.90;99.90
6666;DHT22;3369;49.906;8.598;2023-03-23T10:19:26;13.90;99.90
6666;DHT22;3369;49.906;8.598;2023-03-23T10:22:08;13.90;99.90
6666;DHT22;3369;49.906;8.598;2023-03-23T10:24:46;13.80;99.90
6666;DHT22;3369;49.906;8.598;2023-03-23T10:27:42;13.70;99.90
6666;DHT22;3369;49.906;8.598;2023-03-23T10:30:32;13.70;99.90
6666;DHT22;3369;49.906;8.598;2023-03-23T10:33:03;13.60;99.90
6666;DHT22;3369;49.906;8.598;2023-03-23T10:36:29;13.60;99.90
6666;DHT22;3369;49.906;8.598;2023-03-23T10:38:38;13.50;99.90
6666;DHT22;3369;49.906;8.598;2023-03-23T10:41:10;13.50;99.90
6666;DHT22;3369;49.906;8.598;2023-03-23T10:43:40;13.50;99.90
6666;DHT22;3369;49.906;8.598;2023-03-23T10:48:58;13.40;99.90
6666;DHT22;3369;49.906;8.598;2023-03-23T10:51:31;13.50;99.90
6666;DHT22;3369;49.906;8.598;2023-03-23T10:54:00;13.50;99.90
6666;DHT22;3369;49.906;8.598;2023-03-23T10:56:53;13.50;99.90
6666;DHT22;3369;49.906;8.598;2023-03-23T10:59:25;13.50;99.90
6666;DHT22;3369;49.906;8.598;2023-03-23T11:01:55;13.50;99.90
6666;DHT22;3369;49.906;8.598;2023-03-23T11:04:22;13.50;99.90
6666;DHT22;3369;49.906;8.598;2023-03-23T11:06:51;13.50;99.90
6666;DHT22;3369;49.906;8.598;2023-03-23T11:09:19;13.60;99.90
6666;DHT22;3369;49.906;8.598;2023-03-23T11:11:51;13.60;99.90
6666;DHT22;3369;49.906;8.598;2023-03-23T11:14:29;13.60;99.90
6666;DHT22;3369;49.906;8.598;2023-03-23T11:16:57;13.60;99.90
6666;DHT22;3369;49.906;8.598;2023-03-23T11:19:32;13.70;99.90
6666;DHT22;3369;49.906;8.598;2023-03-23T11:24:45;13.70;99.90
6666;DHT22;3369;49.906;8.598;2023-03-23T11:27:11;13.60;99.90
6666;DHT22;3369;49.906;8.598;2023-03-23T11:30:07;13.60;99.90
6666;DHT22;3369;49.906;8.598;2023-03-23T11:32:34;13.60;99.90
6666;DHT22;3369;49.906;8.598;2023-03-23T11:35:04;13.60;99.90
6666;DHT22;3369;49.906;8.598;2023-03-23T11:37:35;13.60;99.90
6666;DHT22;3369;49.906;8.598;2023-03-23T11:42:48;13.70;99.90
6666;DHT22;3369;49.906;8.598;2023-03-23T11:47:55;13.70;99.90
6666;DHT22;3369;49.906;8.598;2023-03-23T11:50:32;13.70;99.90
6666;DHT22;3369;49.906;8.598;2023-03-23T11:53:11;13.70;99.90
6666;DHT22;3369;49.906;8.598;2023-03-23T11:55:56;13.70;99.90
6666;DHT22;3369;49.906;8.598;2023-03-23T11:58:25;13.60;99.90
6666;DHT22;3369;49.906;8.598;2023-03-23T12:01:18;13.60;99.90
6666;DHT22;3369;49.906;8.598;2023-03-23T12:04:11;13.60;99.90
6666;DHT22;3369;49.906;8.598;2023-03-23T12:07:14;13.60;99.90
6666;DHT22;3369;49.906;8.598;2023-03-23T12:12:44;13.60;99.90
6666;DHT22;3369;49.906;8.598;2023-03-23T12:24:01;13.60;99.90
6666;DHT22;3369;49.906;8.598;2023-03-23T12:26:38;13.60;99.90
6666;DHT22;3369;49.906;8.598;2023-03-23T12:29:13;13.60;99.90
6666;DHT22;3369;49.906;8.598;2023-03-23T12:34:51;13.60;99.90
6666;DHT22;3369;49.906;8.598;2023-03-23T12:43:24;13.90;99.90
6666;DHT22;3369;49.906;8.598;2023-03-23T12:48:34;14.10;99.90
6666;DHT22;3369;49.906;8.598;2023-03-23T12:51:11;14.20;99.90
6666;DHT22;3369;49.906;8.598;2023-03-23T12:53:50;14.30;99.90
6666;DHT22;3369;49.906;8.598;2023-03-23T12:56:42;14.40;99.90
6666;DHT22;3369;49.906;8.598;2023-03-23T12:59:32;14.40;99.90
6666;DHT22;3369;49.906;8.598;2023-03-23T13:05:03;14.50;99.90
6666;DHT22;3369;49.906;8.598;2023-03-23T13:07:35;14.50;99.90
6666;DHT22;3369;49.906;8.598;2023-03-23T13:29:56;14.70;99.90
6666;DHT22;3369;49.906;8.598;2023-03-23T13:32:36;14.70;99.90
6666;DHT22;3369;49.906;8.598;2023-03-23T13:35:05;14.70;99.90
6666;DHT22;3369;49.906;8.598;2023-03-23T13:37:42;14.70;99.90
6666;DHT22;3369;49.906;8.598;2023-03-23T13:42:51;14.70;99.90
6666;DHT22;3369;49.906;8.598;2023-03-23T13:45:36;14.70;99.90
6666;DHT22;3369;49.906;8.598;2023-03-23T13:50:48;14.80;99.90
6666;DHT22;3369;49.906;8.598;2023-03-23T13:53:26;14.80;99.90
6666;DHT22;3369;49.906;8.598;2023-03-23T13:56:18;14.80;99.90
6666;DHT22;3369;49.906;8.598;2023-03-23T13:59:04;14.80;99.90
6666;DHT22;3369;49.906;8.598;2023-03-23T14:01:36;14.70;99.90
6666;DHT22;3369;49.906;8.598;2023-03-23T14:04:06;14.70;99.90
6666;DHT22;3369;49.906;8.598;2023-03-23T14:06:36;14.60;99.90
6666;DHT22;3369;49.906;8.598;2023-03-23T14:09:28;14.60;99.90
6666;DHT22;3369;49.906;8.598;2023-03-23T14:12:05;14.50;99.90
6666;DHT22;3369;49.906;8.598;2023-03-23T14:14:45;14.50;99.90
6666;DHT22;3369;49.906;8.598;2023-03-23T14:17:22;14.50;99.90
6666;DHT22;3369;49.906;8.598;2023-03-23T14:19:54;14.60;99.90
6666;DHT22;3369;49.906;8.598;2023-03-23T14:22:32;14.60;99.90
6666;DHT22;3369;49.906;8.598;2023-03-23T14:25:08;14.60;99.90
6666;DHT22;3369;49.906;8.598;2023-03-23T14:27:36;14.60;99.90
6666;DHT22;3369;49.906;8.598;2023-03-23T14:30:14;14.60;99.90
6666;DHT22;3369;49.906;8.598;2023-03-23T14:32:43;14.50;99.90
6666;DHT22;3369;49.906;8.598;2023-03-23T14:37:40;14.40;99.90
6666;DHT22;3369;49.906;8.598;2023-03-23T14:40:14;14.40;99.90
6666;DHT22;3369;49.906;8.598;2023-03-23T14:42:41;14.40;99.90
6666;DHT22;3369;49.906;8.598;2023-03-23T14:45:14;14.30;99.90
6666;DHT22;3369;49.906;8.598;2023-03-23T14:47:46;14.30;99.90
6666;DHT22;3369;49.906;8.598;2023-03-23T14:50:35;14.30;99.90
6666;DHT22;3369;49.906;8.598;2023-03-23T14:53:23;14.30;99.90
6666;DHT22;3369;49.906;8.598;2023-03-23T14:55:51;14.20;99.90
6666;DHT22;3369;49.906;8.598;2023-03-23T14:58:20;14.20;99.90
6666;DHT22;3369;49.906;8.598;2023-03-23T15:00:58;14.20;99.90
6666;DHT22;3369;49.906;8.598;2023-03-23T15:03:25;14.20;99.90
6666;DHT22;3369;49.906;8.598;2023-03-23T15:05:57;14.20;99.90
6666;DHT22;3369;49.906;8.598;2023-03-23T15:08:34;14.20;99.90
6666;DHT22;3369;49.906;8.598;2023-03-23T15:11:12;14.10;99.90
6666;DHT22;3369;49.906;8.598;2023-03-23T15:13:44;14.10;99.90
6666;DHT22;3369;49.906;8.598;2023-03-23T15:16:19;14.10;99.90
6666;DHT22;3369;49.906;8.598;2023-03-23T15:19:05;14.10;99.90
6666;DHT22;3369;49.906;8.598;2023-03-23T15:21:47;14.10;99.90
6666;DHT22;3369;49.906;8.598;2023-03-23T15:24:39;14.10;99.90
6666;DHT22;3369;49.906;8.598;2023-03-23T15:29:53;14.10;99.90
6666;DHT22;3369;49.906;8.598;2023-03-23T15:32:25;14.10;99.90
6666;DHT22;3369;49.906;8.598;2023-03-23T15:34:51;14.10;99.90
6666;DHT22;3369;49.906;8.598;2023-03-23T15:37:41;14.10;99.90
6666;DHT22;3369;49.906;8.598;2023-03-23T15:40:22;14.10;99.90
6666;DHT22;3369;49.906;8.598;2023-03-23T15:42:49;14.10;99.90
6666;DHT22;3369;49.906;8.598;2023-03-23T15:45:25;14.10;99.90
6666;DHT22;3369;49.906;8.598;2023-03-23T15:47:52;14.10;99.90
6666;DHT22;3369;49.906;8.598;2023-03-23T15:52:53;14.10;99.90
6666;DHT22;3369;49.906;8.598;2023-03-23T15:55:34;14.10;99.90
6666;DHT22;3369;49.906;8.598;2023-03-23T15:58:08;14.10;99.90
6666;DHT22;3369;49.906;8.598;2023-03-23T16:00:35;14.10;99.90
6666;DHT22;3369;49.906;8.598;2023-03-23T16:03:09;14.00;99.90
6666;DHT22;3369;49.906;8.598;2023-03-23T16:05:36;14.00;99.90
6666;DHT22;3369;49.906;8.598;2023-03-23T16:08:02;14.00;99.90
6666;DHT22;3369;49.906;8.598;2023-03-23T16:10:29;14.00;99.90
6666;DHT22;3369;49.906;8.598;2023-03-23T16:12:55;14.00;99.90
6666;DHT22;3369;49.906;8.598;2023-03-23T16:15:21;14.00;99.90
6666;DHT22;3369;49.906;8.598;2023-03-23T16:17:47;14.00;99.90
6666;DHT22;3369;49.906;8.598;2023-03-23T16:20:16;14.00;99.90
6666;DHT22;3369;49.906;8.598;2023-03-23T16:22:44;14.00;99.90
6666;DHT22;3369;49.906;8.598;2023-03-23T16:25:11;14.00;99.90
6666;DHT22;3369;49.906;8.598;2023-03-23T16:27:38;14.00;99.90
6666;DHT22;3369;49.906;8.598;2023-03-23T16:32:44;13.90;99.90
6666;DHT22;3369;49.906;8.598;2023-03-23T16:35:11;13.80;99.90
6666;DHT22;3369;49.906;8.598;2023-03-23T16:37:38;13.80;99.90
6666;DHT22;3369;49.906;8.598;2023-03-23T16:40:05;13.80;99.90
6666;DHT22;3369;49.906;8.598;2023-03-23T16:42:32;13.80;99.90
6666;DHT22;3369;49.906;8.598;2023-03-23T16:44:58;13.70;99.90
6666;DHT22;3369;49.906;8.598;2023-03-23T16:47:23;13.70;99.90
6666;DHT22;3369;49.906;8.598;2023-03-23T16:49:51;13.70;99.90
6666;DHT22;3369;49.906;8.598;2023-03-23T16:52:17;13.70;99.90
6666;DHT22;3369;49.906;8.598;2023-03-23T16:54:43;13.60;99.90
6666;DHT22;3369;49.906;8.598;2023-03-23T16:57:09;13.60;99.90
6666;DHT22;3369;49.906;8.598;2023-03-23T16:59:35;13.60;99.90
6666;DHT22;3369;49.906;8.598;2023-03-23T17:02:01;13.60;99.90
6666;DHT22;3369;49.906;8.598;2023-03-23T17:04:32;13.60;99.90
6666;DHT22;3369;49.906;8.598;2023-03-23T17:06:58;13.60;99.90
6666;DHT22;3369;49.906;8.598;2023-03-23T17:09:25;13.60;99.90
6666;DHT22;3369;49.906;8.598;2023-03-23T17:11:52;13.60;99.90
6666;DHT22;3369;49.906;8.598;2023-03-23T17:14:19;13.50;99.90
6666;DHT22;3369;49.906;8.598;2023-03-23T17:16:45;13.50;99.90
6666;DHT22;3369;49.906;8.598;2023-03-23T17:19:11;13.50;99.90
6666;DHT22;3369;49.906;8.598;2023-03-23T17:21:39;13.50;99.90
6666;DHT22;3369;49.906;8.598;2023-03-23T17:24:05;13.50;99.90
6666;DHT22;3369;49.906;8.598;2023-03-23T17:26:31;13.40;99.90
6666;DHT22;3369;49.906;8.598;2023-03-23T17:28:57;13.40;99.90
6666;DHT22;3369;49.906;8.598;2023-03-23T17:31:23;13.40;99.90
6666;DHT22;3369;49.906;8.598;2023-03-23T17:33:48;13.40;99.90
6666;DHT22;3369;49.906;8.598;2023-03-23T17:36:16;13.40;99.90
6666;DHT22;3369;49.906;8.598;2023-03-23T17:38:41;13.30;99.90
6666;DHT22;3369;49.906;8.598;2023-03-23T17:41:07;13.30;99.90
6666;DHT22;3369;49.906;8.598;2023-03-23T17:43:33;13.30;99.90
6666;DHT22;3369;49.906;8.598;2023-03-23T17:46:00;13.30;99.90
6666;DHT22;3369;49.906;8.598;2023-03-23T17:48:26;13.30;99.90
6666;DHT22;3369;49.906;8.598;2023-03-23T17:50:54;13.20;99.90
6666;DHT22;3369;49.906;8.598;2023-03-23T17:53:22;13.20;99.90
6666;DHT22;3369;49.906;8.598;2023-03-23T17:55:51;13.20;99.90
6666;DHT22;3369;49.906;8.598;2023-03-23T17:58:17;13.20;99.90
6666;DHT22;3369;49.906;8.598;2023-03-23T18:00:43;13.10;99.90
6666;DHT22;3369;49.906;8.598;2023-03-23T18:03:08;13.10;99.90
6666;DHT22;3369;49.906;8.598;2023-03-23T18:05:34;13.10;99.90
6666;DHT22;3369;49.906;8.598;2023-03-23T18:08:03;13.10;99.90
6666;DHT22;3369;49.906;8.598;2023-03-23T18:10:28;13.00;99.90
6666;DHT22;3369;49.906;8.598;2023-03-23T18:12:54;13.00;99.90
6666;DHT22;3369;49.906;8.598;2023-03-23T18:15:20;13.00;99.90
6666;DHT22;3369;49.906;8.598;2023-03-23T18:17:46;13.00;99.90
6666;DHT22;3369;49.906;8.598;2023-03-23T18:20:15;13.00;99.90
6666;DHT22;3369;49.906;8.598;2023-03-23T18:22:41;13.00;99.90
6666;DHT22;3369;49.906;8.598;2023-03-23T18:25:08;13.00;99.90
6666;DHT22;3369;49.906;8.598;2023-03-23T18:27:33;13.00;99.90
6666;DHT22;3369;49.906;8.598;2023-03-23T18:30:00;13.00;99.90
6666;DHT22;3369;49.906;8.598;2023-03-23T18:32:27;13.00;99.90
6666;DHT22;3369;49.906;8.598;2023-03-23T18:34:53;13.00;99.90
6666;DHT22;3369;49.906;8.598;2023-03-23T18:37:20;13.00;99.90
6666;DHT22;3369;49.906;8.598;2023-03-23T18:39:46;13.00;99.90
6666;DHT22;3369;49.906;8.598;2023-03-23T18:42:12;13.00;99.90
6666;DHT22;3369;49.906;8.598;2023-03-23T18:44:39;13.00;99.90